createdAt,value
2023-04-18T00:02:07.371Z,1.10
2023-04-18T00:05:12.460Z,1.20
2023-04-18T00:08:16.063Z,1.23
2023-04-18T00:11:20.707Z,1.20
2023-04-18T00:14:24.859Z,1.17
2023-04-18T00:17:28.333Z,1.15
2023-04-18T00:20:32.208Z,0.90
2023-04-18T00:23:36.325Z,1.10
2023-04-18T00:26:39.747Z,1.00
2023-04-18T00:29:43.221Z,0.90
2023-04-18T00:32:46.666Z,1.40
2023-04-18T00:35:50.173Z,1.00
2023-04-18T00:38:54.057Z,1.08
2023-04-18T00:41:57.617Z,1.40
2023-04-18T00:45:01.389Z,0.90
2023-04-18T00:48:05.230Z,1.25
2023-04-18T00:51:09.629Z,1.00
2023-04-18T00:54:14.209Z,1.30
2023-04-18T00:57:17.863Z,1.05
2023-04-18T01:00:23.001Z,1.00
2023-04-18T01:03:27.158Z,1.58
2023-04-18T01:06:31.166Z,2.30
2023-04-18T01:09:34.912Z,2.40
2023-04-18T01:12:38.636Z,2.17
2023-04-18T01:15:43.737Z,2.00
2023-04-18T01:18:47.153Z,1.83
2023-04-18T01:21:53.582Z,1.40
2023-04-18T01:24:57.309Z,1.20
2023-04-18T01:28:00.917Z,1.52
2023-04-18T01:31:04.628Z,1.52
2023-04-18T01:34:08.671Z,1.40
2023-04-18T01:37:12.075Z,1.10
2023-04-18T01:40:16.796Z,1.08
2023-04-18T01:43:20.496Z,1.00
2023-04-18T01:46:24.011Z,1.35
2023-04-18T01:49:27.740Z,1.77
2023-04-18T01:52:31.661Z,2.13
2023-04-18T01:55:35.006Z,2.03
2023-04-18T01:58:38.624Z,2.00
2023-04-18T02:01:42.877Z,1.60
2023-04-18T02:04:46.515Z,1.70
2023-04-18T02:07:50.444Z,1.20
2023-04-18T02:10:54.131Z,1.40
2023-04-18T02:13:59.698Z,1.65
2023-04-18T02:17:03.227Z,1.23
2023-04-18T02:20:08.200Z,1.70
2023-04-18T02:23:11.790Z,1.63
2023-04-18T02:26:15.377Z,1.40
2023-04-18T02:29:19.504Z,1.30
2023-04-18T02:32:22.964Z,1.42
2023-04-18T02:35:27.500Z,1.67
2023-04-18T02:38:31.882Z,1.07
2023-04-18T02:41:37.687Z,1.40
2023-04-18T02:44:41.003Z,1.08
2023-04-18T02:47:54.413Z,1.67
2023-04-18T02:51:07.086Z,2.10
2023-04-18T02:54:12.929Z,1.87
2023-04-18T02:57:39.506Z,2.45
2023-04-18T03:01:18.705Z,2.47
2023-04-18T03:04:48.825Z,2.70
2023-04-18T03:07:52.332Z,1.67
2023-04-18T03:10:56.437Z,1.33
2023-04-18T03:14:02.133Z,1.10
2023-04-18T03:17:13.496Z,1.63
2023-04-18T03:20:20.769Z,1.00
2023-04-18T03:23:24.482Z,1.27
2023-04-18T03:26:28.634Z,1.00
2023-04-18T03:29:33.773Z,1.38
2023-04-18T03:32:38.725Z,1.00
2023-04-18T03:35:42.254Z,1.20
2023-04-18T03:38:45.835Z,1.15
2023-04-18T03:41:50.012Z,0.97
2023-04-18T03:44:54.099Z,1.00
2023-04-18T03:47:57.682Z,0.90
2023-04-18T03:51:01.939Z,0.90
2023-04-18T03:54:07.384Z,1.20
2023-04-18T03:57:10.884Z,1.10
2023-04-18T04:00:15.350Z,0.93
2023-04-18T04:03:31.950Z,1.30
2023-04-18T04:06:36.584Z,1.45
2023-04-18T04:09:40.279Z,2.83
2023-04-18T04:12:44.080Z,4.20
2023-04-18T04:15:47.609Z,3.40
2023-04-18T04:18:51.507Z,2.40
2023-04-18T04:21:58.859Z,1.52
2023-04-18T04:25:03.889Z,1.23
2023-04-18T04:28:14.140Z,1.40
2023-04-18T04:31:28.846Z,1.88
2023-04-18T04:34:34.581Z,2.10
2023-04-18T04:37:41.361Z,2.00
2023-04-18T04:41:00.297Z,1.92
2023-04-18T04:44:04.902Z,1.80
2023-04-18T04:47:10.193Z,1.90
2023-04-18T04:50:18.056Z,2.00
2023-04-18T04:53:21.686Z,1.63
2023-04-18T04:56:25.834Z,2.22
2023-04-18T04:59:29.498Z,2.63
2023-04-18T05:02:33.101Z,2.30
2023-04-18T05:05:36.969Z,2.13
2023-04-18T05:08:40.608Z,2.03
2023-04-18T05:11:44.101Z,2.03
2023-04-18T05:14:47.525Z,1.80
2023-04-18T05:17:50.990Z,1.52
2023-04-18T05:20:54.387Z,2.05
2023-04-18T05:23:59.014Z,1.48
2023-04-18T05:27:02.571Z,1.38
2023-04-18T05:30:06.993Z,1.37
2023-04-18T05:33:10.665Z,1.48
2023-04-18T05:36:14.152Z,1.77
2023-04-18T05:39:17.599Z,1.70
2023-04-18T05:42:21.082Z,1.70
2023-04-18T05:45:26.591Z,1.30
2023-04-18T05:48:32.156Z,1.55
2023-04-18T05:51:36.141Z,1.70
2023-04-18T05:54:39.485Z,1.92
2023-04-18T05:57:42.926Z,1.70
2023-04-18T06:00:48.160Z,1.80
2023-04-18T06:03:51.796Z,1.80
2023-04-18T06:06:55.692Z,1.67
2023-04-18T06:09:59.758Z,1.88
2023-04-18T06:13:04.623Z,1.88
2023-04-18T06:16:09.739Z,1.70
2023-04-18T06:19:15.693Z,2.22
2023-04-18T06:22:19.414Z,2.30
2023-04-18T06:25:24.116Z,1.75
2023-04-18T06:28:27.912Z,1.92
2023-04-18T06:31:37.857Z,1.90
2023-04-18T06:34:47.933Z,1.90
2023-04-18T06:37:51.527Z,2.17
2023-04-18T06:40:54.974Z,1.70
2023-04-18T06:44:03.998Z,2.45
2023-04-18T06:47:08.039Z,1.90
2023-04-18T06:50:12.161Z,1.80
2023-04-18T06:53:16.807Z,2.08
2023-04-18T06:56:21.912Z,2.38
2023-04-18T06:59:26.007Z,2.40
2023-04-18T07:02:29.741Z,2.00
2023-04-18T07:05:33.380Z,2.35
2023-04-18T07:08:37.171Z,2.20
2023-04-18T07:11:41.976Z,2.05
2023-04-18T07:14:45.506Z,1.90
2023-04-18T07:17:49.024Z,2.10
2023-04-18T07:20:52.547Z,2.20
2023-04-18T07:23:55.987Z,2.25
2023-04-18T07:26:59.392Z,2.35
2023-04-18T07:30:03.951Z,2.30
2023-04-18T07:33:07.992Z,2.40
2023-04-18T07:36:11.762Z,2.15
2023-04-18T07:39:15.437Z,2.20
2023-04-18T07:42:25.968Z,1.98
2023-04-18T07:45:29.652Z,2.20
2023-04-18T07:48:33.341Z,2.17
2023-04-18T07:51:37.028Z,2.30
2023-04-18T07:54:40.588Z,2.45
2023-04-18T07:57:45.899Z,2.50
2023-04-18T08:00:49.991Z,2.47
2023-04-18T08:03:55.150Z,2.10
2023-04-18T08:06:58.747Z,2.70
2023-04-18T08:10:02.368Z,1.98
2023-04-18T08:13:06.487Z,2.35
2023-04-18T08:16:09.971Z,2.65
2023-04-18T08:19:13.910Z,2.23
2023-04-18T08:22:17.629Z,2.10
2023-04-18T08:25:20.937Z,2.45
2023-04-18T08:28:24.400Z,1.90
2023-04-18T08:31:28.319Z,2.63
2023-04-18T08:34:36.661Z,2.17
2023-04-18T08:37:40.278Z,2.05
2023-04-18T08:40:45.217Z,2.13
2023-04-18T08:43:49.959Z,1.90
2023-04-18T08:46:53.560Z,2.03
2023-04-18T08:49:58.606Z,1.93
2023-04-18T10:40:39.081Z,2.80
2023-04-18T10:44:10.244Z,1.80
2023-04-18T10:47:16.609Z,1.95
2023-04-18T10:50:20.951Z,1.80
2023-04-18T10:53:57.861Z,2.03
2023-04-18T10:57:03.783Z,1.90
2023-04-18T11:00:15.375Z,1.90
2023-04-18T11:03:19.274Z,1.90
2023-04-18T11:06:23.900Z,1.95
2023-04-18T11:09:27.726Z,1.97
2023-04-18T11:12:36.632Z,1.80
2023-04-18T11:15:40.302Z,2.15
2023-04-18T11:18:43.621Z,1.90
2023-04-18T11:21:47.290Z,2.40
2023-04-18T11:24:50.714Z,2.00
2023-04-18T11:27:57.008Z,1.98
2023-04-18T11:31:03.021Z,2.10
2023-04-18T11:34:06.382Z,1.60
2023-04-18T11:37:09.698Z,2.05
2023-04-18T11:40:14.192Z,1.80
2023-04-18T11:43:24.059Z,1.80
2023-04-18T11:46:41.968Z,1.98
2023-04-18T11:49:49.767Z,1.98
2023-04-18T11:52:55.104Z,2.13
2023-04-18T11:55:59.855Z,1.60
2023-04-18T11:59:09.696Z,1.60
2023-04-18T12:02:16.741Z,1.90
2023-04-18T12:05:32.051Z,2.17
2023-04-18T12:08:35.874Z,2.03
2023-04-18T12:11:42.378Z,1.57
2023-04-18T12:14:46.897Z,1.80
2023-04-18T12:17:53.800Z,1.90
2023-04-18T12:20:58.728Z,1.88
2023-04-18T12:24:15.879Z,1.88
2023-04-18T12:27:19.437Z,1.60
2023-04-18T12:30:24.934Z,2.00
2023-04-18T12:33:28.666Z,2.70
2023-04-18T12:36:32.003Z,2.00
2023-04-18T12:39:35.514Z,2.00
2023-04-18T12:42:38.904Z,1.90
2023-04-18T12:45:42.570Z,2.08
2023-04-18T12:48:45.935Z,2.10
2023-04-18T12:51:49.246Z,1.90
2023-04-18T12:54:52.908Z,1.98
2023-04-18T12:57:58.155Z,1.90
2023-04-18T13:01:01.720Z,1.80
2023-04-18T13:04:12.348Z,2.10
2023-04-18T13:07:16.629Z,1.80
2023-04-18T13:10:23.899Z,2.03
2023-04-18T13:13:27.602Z,2.73
2023-04-18T13:16:31.317Z,2.40
2023-04-18T13:19:34.716Z,2.88
2023-04-18T13:22:38.865Z,2.10
2023-04-18T13:25:42.303Z,1.90
2023-04-18T13:28:45.884Z,1.70
2023-04-18T13:31:49.463Z,1.90
2023-04-18T13:34:53.138Z,2.75
2023-04-18T13:37:58.142Z,2.35
2023-04-18T13:41:12.361Z,2.08
2023-04-18T13:44:16.511Z,2.00
2023-04-18T13:47:20.651Z,2.10
2023-04-18T13:50:24.661Z,2.17
2023-04-18T13:53:30.627Z,2.55
2023-04-18T13:56:34.535Z,2.20
2023-04-18T13:59:40.507Z,2.30
2023-04-18T14:02:44.416Z,2.58
2023-04-18T14:05:48.028Z,2.00
2023-04-18T14:08:51.476Z,2.10
2023-04-18T14:11:55.088Z,2.25
2023-04-18T14:14:58.507Z,2.00
2023-04-18T14:18:02.140Z,2.00
2023-04-18T14:21:06.421Z,2.40
2023-04-18T14:24:10.790Z,2.50
2023-04-18T14:27:14.148Z,2.50
2023-04-18T14:30:17.572Z,2.00
2023-04-18T14:33:21.053Z,2.22
2023-04-18T14:36:24.660Z,2.35
2023-04-18T14:39:28.108Z,2.20
2023-04-18T14:42:31.851Z,2.22
2023-04-18T14:45:35.454Z,2.30
2023-04-18T14:48:38.900Z,6.45
2023-04-18T14:51:42.493Z,3.40
2023-04-18T14:54:45.882Z,3.88
2023-04-18T14:57:49.391Z,3.10
2023-04-18T15:00:52.775Z,2.40
2023-04-18T15:03:56.509Z,2.60
2023-04-18T15:07:00.268Z,2.45
2023-04-18T15:10:04.477Z,2.15
2023-04-18T15:13:08.479Z,2.75
2023-04-18T15:16:12.630Z,2.17
2023-04-18T15:19:16.152Z,4.40
2023-04-18T15:22:19.632Z,13.23
2023-04-18T15:25:23.452Z,4.13
2023-04-18T15:28:26.980Z,2.58
2023-04-18T15:31:31.436Z,2.50
2023-04-18T15:34:34.941Z,4.03
2023-04-18T15:37:38.809Z,2.70
2023-04-18T15:40:43.605Z,2.40
2023-04-18T15:43:47.478Z,5.25
2023-04-18T15:46:51.198Z,8.23
2023-04-18T15:49:54.886Z,10.18
2023-04-18T15:52:58.408Z,3.55
2023-04-18T15:56:01.960Z,2.50
2023-04-18T15:59:06.859Z,2.67
2023-04-18T16:02:11.101Z,2.30
2023-04-18T16:05:15.497Z,3.03
2023-04-18T16:08:19.071Z,2.67
2023-04-18T16:11:26.179Z,3.25
2023-04-18T16:14:30.576Z,3.15
2023-04-18T16:17:34.426Z,3.50
2023-04-18T16:20:37.857Z,2.88
2023-04-18T16:23:41.728Z,3.33
2023-04-18T16:26:45.200Z,3.00
2023-04-18T16:29:48.715Z,3.47
2023-04-18T16:32:52.325Z,3.37
2023-04-18T16:36:03.144Z,4.85
2023-04-18T16:39:06.635Z,9.95
2023-04-18T16:42:10.329Z,5.60
2023-04-18T16:45:13.887Z,5.22
2023-04-18T16:48:17.622Z,6.27
2023-04-18T16:51:21.130Z,3.10
2023-04-18T16:54:24.738Z,4.28
2023-04-18T16:57:28.225Z,5.28
2023-04-18T17:00:31.659Z,5.20
2023-04-18T17:03:36.948Z,7.97
2023-04-18T17:06:42.931Z,3.95
2023-04-18T17:09:46.575Z,3.60
2023-04-18T17:12:50.277Z,3.63
2023-04-18T17:15:55.051Z,6.13
2023-04-18T17:18:58.556Z,4.50
2023-04-18T17:22:02.251Z,3.35
2023-04-18T17:25:06.750Z,3.47
2023-04-18T17:28:10.523Z,5.00
2023-04-18T17:31:16.700Z,4.22
2023-04-18T17:34:20.455Z,5.03
2023-04-18T17:37:24.018Z,4.10
2023-04-18T17:40:28.297Z,4.10
2023-04-18T17:43:32.200Z,4.05
2023-04-18T17:46:36.072Z,3.83
2023-04-18T17:49:40.128Z,3.37
2023-04-18T17:52:44.068Z,2.92
2023-04-18T17:55:50.603Z,2.75
2023-04-18T17:58:56.577Z,3.10
2023-04-18T18:02:00.673Z,4.20
2023-04-18T18:05:05.601Z,4.37
2023-04-18T18:08:09.404Z,3.75
2023-04-18T18:11:13.183Z,4.00
2023-04-18T18:14:17.056Z,3.40
2023-04-18T18:17:21.062Z,3.60
2023-04-18T18:20:25.947Z,5.33
2023-04-18T18:23:29.985Z,4.32
2023-04-18T18:26:34.516Z,3.40
2023-04-18T18:29:38.745Z,3.17
2023-04-18T18:32:42.238Z,3.80
2023-04-18T18:35:45.933Z,4.33
2023-04-18T18:38:49.380Z,4.15
2023-04-18T18:41:52.943Z,3.60
2023-04-18T18:44:56.649Z,3.30
2023-04-18T18:48:00.573Z,3.50
2023-04-18T18:51:04.489Z,3.10
2023-04-18T18:54:08.550Z,3.05
2023-04-18T18:57:12.005Z,3.50
2023-04-18T19:00:16.504Z,3.08
2023-04-18T19:03:21.258Z,3.30
2023-04-18T19:06:26.464Z,3.63
2023-04-18T19:09:30.803Z,3.13
2023-04-18T19:12:35.434Z,3.42
2023-04-18T19:15:39.149Z,3.25
2023-04-18T19:18:47.054Z,2.95
2023-04-18T19:21:51.298Z,3.33
2023-04-18T19:24:57.377Z,3.53
2023-04-18T19:28:01.117Z,3.72
2023-04-18T19:31:05.186Z,3.67
2023-04-18T19:34:09.964Z,3.95
2023-04-18T19:37:13.554Z,3.50
2023-04-18T19:40:17.344Z,2.55
2023-04-18T19:43:21.085Z,4.15
2023-04-18T19:46:24.897Z,4.35
2023-04-18T19:49:28.596Z,4.47
2023-04-18T19:52:32.238Z,4.00
2023-04-18T19:55:35.698Z,4.13
2023-04-18T19:58:45.028Z,4.60
2023-04-18T20:01:49.055Z,5.40
2023-04-18T20:04:52.787Z,4.60
2023-04-18T20:07:56.535Z,4.37
2023-04-18T20:11:00.356Z,4.47
2023-04-18T20:14:04.670Z,4.28
2023-04-18T20:17:08.318Z,4.47
2023-04-18T20:20:12.461Z,4.22
2023-04-18T20:23:16.197Z,4.57
2023-04-18T20:26:19.794Z,5.07
2023-04-18T20:29:23.978Z,5.22
2023-04-18T20:32:28.159Z,4.95
2023-04-18T20:35:31.936Z,4.57
2023-04-18T20:38:37.018Z,4.53
2023-04-18T20:41:46.676Z,4.95
2023-04-18T20:44:50.078Z,5.00
2023-04-18T20:47:53.649Z,4.65
2023-04-18T20:50:57.044Z,4.93
2023-04-18T20:54:00.590Z,5.27
2023-04-18T20:57:04.087Z,4.93
2023-04-18T21:00:08.312Z,5.25
2023-04-18T21:03:14.671Z,6.07
2023-04-18T21:06:22.085Z,8.00
2023-04-18T21:09:25.723Z,8.33
2023-04-18T21:12:29.075Z,7.88
2023-04-18T21:15:32.591Z,8.07
2023-04-18T21:18:37.188Z,7.57
2023-04-18T21:21:40.626Z,7.88
2023-04-18T21:24:45.209Z,7.87
2023-04-18T21:27:50.658Z,11.90
2023-04-18T21:30:54.211Z,16.35
2023-04-18T21:34:00.556Z,11.93
2023-04-18T21:37:03.903Z,6.90
2023-04-18T21:40:08.140Z,4.47
2023-04-18T21:43:11.566Z,4.28
2023-04-18T21:46:15.401Z,4.30
2023-04-18T21:49:19.053Z,5.72
2023-04-18T21:52:22.511Z,10.52
2023-04-18T21:55:25.926Z,11.00
2023-04-18T21:58:29.725Z,9.15
2023-04-18T22:01:38.937Z,9.63
2023-04-18T22:04:45.279Z,8.32
2023-04-18T22:07:57.628Z,6.90
2023-04-18T22:11:02.060Z,4.97
2023-04-18T22:14:05.931Z,4.95
2023-04-18T22:17:10.082Z,4.50
2023-04-18T22:20:13.468Z,3.83
2023-04-18T22:23:17.049Z,3.33
2023-04-18T22:26:20.668Z,3.40
2023-04-18T22:29:24.254Z,2.90
2023-04-18T22:32:27.755Z,3.10
2023-04-18T22:35:31.187Z,3.15
2023-04-18T22:38:34.599Z,3.55
2023-04-18T22:41:38.012Z,3.70
2023-04-18T22:44:41.404Z,3.55
2023-04-18T22:47:44.838Z,3.72
2023-04-18T22:50:50.043Z,3.20
2023-04-18T22:53:53.698Z,3.70
2023-04-18T22:56:57.152Z,3.37
2023-04-18T23:00:00.663Z,3.20
2023-04-18T23:03:04.658Z,2.95
2023-04-18T23:06:08.891Z,2.90
2023-04-18T23:09:12.384Z,2.58
2023-04-18T23:12:16.063Z,3.37
2023-04-18T23:15:19.480Z,3.13
2023-04-18T23:18:22.873Z,3.00
2023-04-18T23:21:27.821Z,3.08
2023-04-18T23:24:31.693Z,2.83
2023-04-18T23:27:34.965Z,2.53
2023-04-18T23:30:38.311Z,2.60
2023-04-18T23:33:41.670Z,2.45
2023-04-18T23:36:45.113Z,3.00
2023-04-18T23:39:48.882Z,2.80
2023-04-18T23:42:52.227Z,2.50
2023-04-18T23:45:55.811Z,2.58
2023-04-18T23:48:59.522Z,3.10
2023-04-18T23:52:03.717Z,2.85
2023-04-18T23:55:07.532Z,2.85
2023-04-18T23:58:10.888Z,2.20
